To NAV CANADA Home Page Login to a new session Search on AWWS site Disclaimer Vers la page française équivalente Tips FAQ What's new on the site To the Forecasts and Observations / NOTAM section To "File a Flight Plan" website Publications and other links Update of the User's profile FIC Telephone Numbers My Weather Data Folder Route Weather Data Regional Weather Data Local Weather Data To the Forecasts and Observations / NOTAM section
Request Generated 11/16/2018 at 01:07:39 UTC . Weather information available at that time is displayed.

METAR/TAF

INUVIK (MIKE ZUBKO)/NT    

METAR CYEV 160100Z 00000KT 15SM SKC M21/M25 A3034 RMK SLP285=
METAR CYEV 160000Z 32003KT 15SM FEW220 M21/M24 A3035 RMK CI1 CI TR SLP288=
METAR CYEV 152300Z 28003KT 15SM FEW220 M20/M23 A3035 RMK CI1 SLP288=

TAF CYEV 160038Z 1601/1613 VRB03KT P6SM FEW210
RMK NXT FCST BY 160700Z=
Your time UTC time
Weather data provided by Environment Canada and NAV CANADA